Great Barton, United Kingdom
Current Conditions -  °F | °C
As of 3:58 PM on Friday 31 Oct 2014 (Local Time) from EGUL Reporting Station
Clear Clear  
Wind Chill: 67°   Ceiling: Unl
Heat Index: 67°   Visibility: 6mi
Dew Point: 66°   Wind: 10mph
Humidity: 97%   Direction: 150°SSE
Pressure: 29.95"   Gusts: NA
Location:  52.27°N, 0.77°E
Report Text: EGUL 311558Z AUTO 15009KT 9999 CLR 19/19 A2995 RMK AO2 SLP145 T01920187
Loading
Personal Weather Stations






























Interactive Weather Map
Tropical Storm Tracking
New forecast layout! Learn more

10-Day Weather Forecast

Advertisements
Track Severe Weather on mobile